sensor_id;sensor_type;location;lat;lon;timestamp;P1;durP1;ratioP1;P2;durP2;ratioP2
18340;SDS011;9296;48.084;16.352;2023-12-07T10:28:43;13.95;;;9.75;;
18340;SDS011;9296;48.084;16.352;2023-12-07T10:31:12;15.02;;;9.50;;
18340;SDS011;9296;48.084;16.352;2023-12-07T10:33:39;14.80;;;9.90;;
18340;SDS011;9296;48.084;16.352;2023-12-07T10:36:08;16.00;;;10.38;;
18340;SDS011;9296;48.084;16.352;2023-12-07T10:38:35;15.23;;;10.00;;
18340;SDS011;9296;48.084;16.352;2023-12-07T10:41:12;15.20;;;10.25;;
18340;SDS011;9296;48.084;16.352;2023-12-07T10:43:43;15.43;;;9.90;;
18340;SDS011;9296;48.084;16.352;2023-12-07T10:46:12;14.20;;;9.85;;
18340;SDS011;9296;48.084;16.352;2023-12-07T10:51:08;13.02;;;9.57;;
18340;SDS011;9296;48.084;16.352;2023-12-07T10:53:37;14.02;;;10.13;;
18340;SDS011;9296;48.084;16.352;2023-12-07T10:56:05;13.60;;;10.13;;
18340;SDS011;9296;48.084;16.352;2023-12-07T10:58:36;14.18;;;10.25;;
18340;SDS011;9296;48.084;16.352;2023-12-07T11:06:56;13.48;;;10.13;;
18340;SDS011;9296;48.084;16.352;2023-12-07T11:09:25;13.23;;;9.30;;
18340;SDS011;9296;48.084;16.352;2023-12-07T11:11:54;16.83;;;10.18;;
18340;SDS011;9296;48.084;16.352;2023-12-07T11:14:24;12.90;;;9.18;;
18340;SDS011;9296;48.084;16.352;2023-12-07T11:17:09;13.70;;;8.55;;
18340;SDS011;9296;48.084;16.352;2023-12-07T11:19:43;13.82;;;9.60;;
18340;SDS011;9296;48.084;16.352;2023-12-07T11:22:19;13.98;;;10.07;;
18340;SDS011;9296;48.084;16.352;2023-12-07T11:24:54;15.00;;;10.07;;
18340;SDS011;9296;48.084;16.352;2023-12-07T11:27:28;13.93;;;9.80;;
18340;SDS011;9296;48.084;16.352;2023-12-07T11:29:58;14.68;;;10.38;;
18340;SDS011;9296;48.084;16.352;2023-12-07T11:32:26;15.65;;;10.60;;
18340;SDS011;9296;48.084;16.352;2023-12-07T11:34:54;15.13;;;10.00;;
18340;SDS011;9296;48.084;16.352;2023-12-07T11:37:23;17.60;;;10.65;;
18340;SDS011;9296;48.084;16.352;2023-12-07T11:39:57;16.48;;;10.85;;
18340;SDS011;9296;48.084;16.352;2023-12-07T11:42:30;15.90;;;10.45;;
18340;SDS011;9296;48.084;16.352;2023-12-07T11:44:57;15.52;;;10.48;;
18340;SDS011;9296;48.084;16.352;2023-12-07T11:50:34;15.82;;;10.65;;
18340;SDS011;9296;48.084;16.352;2023-12-07T11:53:03;14.93;;;10.50;;
18340;SDS011;9296;48.084;16.352;2023-12-07T11:55:32;15.38;;;10.45;;
18340;SDS011;9296;48.084;16.352;2023-12-07T11:58:00;16.50;;;10.73;;
18340;SDS011;9296;48.084;16.352;2023-12-07T12:03:32;17.23;;;10.77;;
18340;SDS011;9296;48.084;16.352;2023-12-07T12:06:13;16.77;;;10.88;;
18340;SDS011;9296;48.084;16.352;2023-12-07T12:08:42;15.98;;;10.35;;
18340;SDS011;9296;48.084;16.352;2023-12-07T12:11:10;15.30;;;10.00;;
18340;SDS011;9296;48.084;16.352;2023-12-07T12:13:37;16.65;;;10.63;;
18340;SDS011;9296;48.084;16.352;2023-12-07T12:16:05;16.35;;;11.32;;
18340;SDS011;9296;48.084;16.352;2023-12-07T12:18:54;17.20;;;11.23;;
18340;SDS011;9296;48.084;16.352;2023-12-07T12:21:24;15.73;;;11.35;;
18340;SDS011;9296;48.084;16.352;2023-12-07T12:24:22;17.85;;;11.57;;
18340;SDS011;9296;48.084;16.352;2023-12-07T12:27:01;17.48;;;11.20;;
18340;SDS011;9296;48.084;16.352;2023-12-07T12:29:51;17.83;;;11.18;;
18340;SDS011;9296;48.084;16.352;2023-12-07T12:32:21;16.90;;;10.90;;
18340;SDS011;9296;48.084;16.352;2023-12-07T12:37:53;17.25;;;11.50;;
18340;SDS011;9296;48.084;16.352;2023-12-07T12:40:23;16.20;;;10.93;;
18340;SDS011;9296;48.084;16.352;2023-12-07T12:43:07;16.30;;;11.38;;
18340;SDS011;9296;48.084;16.352;2023-12-07T12:48:52;16.33;;;11.10;;
18340;SDS011;9296;48.084;16.352;2023-12-07T12:51:22;17.88;;;11.68;;
18340;SDS011;9296;48.084;16.352;2023-12-07T12:53:50;16.27;;;11.40;;
18340;SDS011;9296;48.084;16.352;2023-12-07T12:59:28;17.13;;;11.32;;
18340;SDS011;9296;48.084;16.352;2023-12-07T13:02:00;18.73;;;11.55;;
18340;SDS011;9296;48.084;16.352;2023-12-07T13:04:30;18.67;;;11.68;;
18340;SDS011;9296;48.084;16.352;2023-12-07T13:07:01;18.33;;;11.90;;
18340;SDS011;9296;48.084;16.352;2023-12-07T13:09:31;18.63;;;11.85;;
18340;SDS011;9296;48.084;16.352;2023-12-07T13:15:03;19.10;;;12.27;;
18340;SDS011;9296;48.084;16.352;2023-12-07T13:24:19;18.08;;;11.45;;
18340;SDS011;9296;48.084;16.352;2023-12-07T13:27:01;20.00;;;11.55;;
18340;SDS011;9296;48.084;16.352;2023-12-07T13:29:57;19.58;;;12.55;;
18340;SDS011;9296;48.084;16.352;2023-12-07T13:32:41;18.88;;;11.90;;
18340;SDS011;9296;48.084;16.352;2023-12-07T13:35:10;19.67;;;12.70;;
18340;SDS011;9296;48.084;16.352;2023-12-07T13:37:38;19.40;;;12.52;;
18340;SDS011;9296;48.084;16.352;2023-12-07T13:40:07;18.58;;;11.98;;
18340;SDS011;9296;48.084;16.352;2023-12-07T13:42:37;20.90;;;12.60;;
18340;SDS011;9296;48.084;16.352;2023-12-07T13:45:06;19.02;;;12.02;;
18340;SDS011;9296;48.084;16.352;2023-12-07T13:47:37;20.20;;;13.25;;
18340;SDS011;9296;48.084;16.352;2023-12-07T13:50:08;21.08;;;12.93;;
18340;SDS011;9296;48.084;16.352;2023-12-07T13:52:38;18.90;;;12.02;;
18340;SDS011;9296;48.084;16.352;2023-12-07T13:55:22;20.20;;;12.80;;
18340;SDS011;9296;48.084;16.352;2023-12-07T13:58:03;18.80;;;12.18;;
18340;SDS011;9296;48.084;16.352;2023-12-07T14:00:31;20.80;;;13.23;;
18340;SDS011;9296;48.084;16.352;2023-12-07T14:06:22;21.77;;;13.10;;
18340;SDS011;9296;48.084;16.352;2023-12-07T14:08:58;21.67;;;12.90;;
18340;SDS011;9296;48.084;16.352;2023-12-07T14:11:26;22.37;;;13.63;;
18340;SDS011;9296;48.084;16.352;2023-12-07T14:17:14;22.08;;;13.18;;
18340;SDS011;9296;48.084;16.352;2023-12-07T14:19:55;21.70;;;13.33;;
18340;SDS011;9296;48.084;16.352;2023-12-07T14:22:25;21.38;;;13.35;;
18340;SDS011;9296;48.084;16.352;2023-12-07T14:24:53;22.42;;;13.05;;
18340;SDS011;9296;48.084;16.352;2023-12-07T14:27:34;20.27;;;12.82;;
18340;SDS011;9296;48.084;16.352;2023-12-07T14:30:06;22.07;;;13.50;;
18340;SDS011;9296;48.084;16.352;2023-12-07T14:32:54;22.00;;;14.07;;
18340;SDS011;9296;48.084;16.352;2023-12-07T14:35:22;20.95;;;13.75;;
18340;SDS011;9296;48.084;16.352;2023-12-07T14:37:52;22.73;;;14.03;;
18340;SDS011;9296;48.084;16.352;2023-12-07T14:43:40;25.93;;;14.43;;
18340;SDS011;9296;48.084;16.352;2023-12-07T14:46:11;22.10;;;13.90;;
18340;SDS011;9296;48.084;16.352;2023-12-07T14:51:32;24.20;;;14.67;;
18340;SDS011;9296;48.084;16.352;2023-12-07T14:54:01;23.63;;;14.00;;
18340;SDS011;9296;48.084;16.352;2023-12-07T14:56:36;24.15;;;14.18;;
18340;SDS011;9296;48.084;16.352;2023-12-07T14:59:03;24.07;;;13.67;;
18340;SDS011;9296;48.084;16.352;2023-12-07T15:01:30;22.40;;;13.93;;
18340;SDS011;9296;48.084;16.352;2023-12-07T15:04:06;22.83;;;13.53;;
18340;SDS011;9296;48.084;16.352;2023-12-07T15:06:34;23.93;;;14.47;;
18340;SDS011;9296;48.084;16.352;2023-12-07T15:09:23;24.57;;;14.50;;
18340;SDS011;9296;48.084;16.352;2023-12-07T15:12:07;21.90;;;13.90;;
18340;SDS011;9296;48.084;16.352;2023-12-07T15:14:37;22.93;;;13.70;;
18340;SDS011;9296;48.084;16.352;2023-12-07T15:17:09;24.43;;;14.50;;
18340;SDS011;9296;48.084;16.352;2023-12-07T15:19:56;25.00;;;14.73;;
18340;SDS011;9296;48.084;16.352;2023-12-07T15:22:38;23.03;;;13.73;;
18340;SDS011;9296;48.084;16.352;2023-12-07T15:28:12;24.90;;;13.83;;
18340;SDS011;9296;48.084;16.352;2023-12-07T15:30:55;23.87;;;13.80;;
18340;SDS011;9296;48.084;16.352;2023-12-07T15:39:27;22.27;;;13.07;;
18340;SDS011;9296;48.084;16.352;2023-12-07T15:42:28;23.07;;;13.27;;
18340;SDS011;9296;48.084;16.352;2023-12-07T16:01:52;23.97;;;13.73;;
18340;SDS011;9296;48.084;16.352;2023-12-07T16:04:20;20.67;;;12.60;;
18340;SDS011;9296;48.084;16.352;2023-12-07T16:06:48;21.23;;;12.10;;
18340;SDS011;9296;48.084;16.352;2023-12-07T16:09:16;21.23;;;12.27;;
18340;SDS011;9296;48.084;16.352;2023-12-07T16:12:05;21.30;;;12.30;;
18340;SDS011;9296;48.084;16.352;2023-12-07T16:14:37;21.30;;;13.07;;
18340;SDS011;9296;48.084;16.352;2023-12-07T16:23:16;25.53;;;13.33;;
18340;SDS011;9296;48.084;16.352;2023-12-07T16:26:03;20.57;;;12.40;;
18340;SDS011;9296;48.084;16.352;2023-12-07T16:28:44;20.23;;;12.50;;
18340;SDS011;9296;48.084;16.352;2023-12-07T16:31:12;22.33;;;13.20;;
18340;SDS011;9296;48.084;16.352;2023-12-07T16:33:55;20.90;;;12.70;;
18340;SDS011;9296;48.084;16.352;2023-12-07T16:36:23;20.13;;;12.13;;
18340;SDS011;9296;48.084;16.352;2023-12-07T16:38:56;23.67;;;13.80;;
18340;SDS011;9296;48.084;16.352;2023-12-07T16:41:28;21.17;;;13.00;;
18340;SDS011;9296;48.084;16.352;2023-12-07T16:43:57;20.87;;;12.77;;
18340;SDS011;9296;48.084;16.352;2023-12-07T16:46:30;20.50;;;12.80;;
18340;SDS011;9296;48.084;16.352;2023-12-07T16:52:59;23.37;;;13.70;;
18340;SDS011;9296;48.084;16.352;2023-12-07T16:55:31;23.13;;;13.40;;
18340;SDS011;9296;48.084;16.352;2023-12-07T16:58:02;20.87;;;13.20;;
18340;SDS011;9296;48.084;16.352;2023-12-07T17:00:40;23.20;;;13.27;;
18340;SDS011;9296;48.084;16.352;2023-12-07T17:03:21;21.10;;;13.43;;
18340;SDS011;9296;48.084;16.352;2023-12-07T17:11:38;24.10;;;13.00;;
18340;SDS011;9296;48.084;16.352;2023-12-07T17:14:05;24.10;;;13.63;;
18340;SDS011;9296;48.084;16.352;2023-12-07T17:16:34;23.83;;;14.70;;
18340;SDS011;9296;48.084;16.352;2023-12-07T17:19:01;24.13;;;13.00;;
18340;SDS011;9296;48.084;16.352;2023-12-07T17:21:32;20.37;;;12.63;;
18340;SDS011;9296;48.084;16.352;2023-12-07T17:24:29;22.47;;;12.77;;
18340;SDS011;9296;48.084;16.352;2023-12-07T17:53:39;18.67;;;11.50;;
18340;SDS011;9296;48.084;16.352;2023-12-07T17:56:24;17.77;;;11.07;;
18340;SDS011;9296;48.084;16.352;2023-12-07T17:58:53;19.07;;;12.00;;
18340;SDS011;9296;48.084;16.352;2023-12-07T18:01:21;21.23;;;11.20;;
18340;SDS011;9296;48.084;16.352;2023-12-07T18:06:54;18.57;;;10.90;;
18340;SDS011;9296;48.084;16.352;2023-12-07T18:12:35;17.93;;;11.03;;
18340;SDS011;9296;48.084;16.352;2023-12-07T18:15:16;17.60;;;10.60;;
18340;SDS011;9296;48.084;16.352;2023-12-07T18:21:03;19.63;;;11.40;;
18340;SDS011;9296;48.084;16.352;2023-12-07T18:26:33;18.83;;;11.37;;
18340;SDS011;9296;48.084;16.352;2023-12-07T18:29:04;18.10;;;11.40;;
18340;SDS011;9296;48.084;16.352;2023-12-07T18:31:33;20.03;;;11.70;;
18340;SDS011;9296;48.084;16.352;2023-12-07T18:34:01;20.10;;;11.97;;
18340;SDS011;9296;48.084;16.352;2023-12-07T18:36:29;20.23;;;11.10;;
18340;SDS011;9296;48.084;16.352;2023-12-07T18:38:56;19.50;;;11.33;;
18340;SDS011;9296;48.084;16.352;2023-12-07T18:41:24;21.13;;;12.37;;
18340;SDS011;9296;48.084;16.352;2023-12-07T19:10:25;26.03;;;14.83;;
18340;SDS011;9296;48.084;16.352;2023-12-07T19:12:53;27.40;;;14.93;;
18340;SDS011;9296;48.084;16.352;2023-12-07T19:15:34;29.43;;;15.80;;
18340;SDS011;9296;48.084;16.352;2023-12-07T19:18:01;25.43;;;14.33;;
18340;SDS011;9296;48.084;16.352;2023-12-07T19:20:29;24.57;;;14.47;;
18340;SDS011;9296;48.084;16.352;2023-12-07T19:23:10;26.57;;;14.00;;
18340;SDS011;9296;48.084;16.352;2023-12-07T19:25:39;26.73;;;15.00;;
18340;SDS011;9296;48.084;16.352;2023-12-07T19:28:15;28.07;;;15.40;;
18340;SDS011;9296;48.084;16.352;2023-12-07T19:30:45;28.77;;;15.23;;
18340;SDS011;9296;48.084;16.352;2023-12-07T19:35:48;29.87;;;15.77;;
18340;SDS011;9296;48.084;16.352;2023-12-07T19:38:30;26.73;;;15.07;;
18340;SDS011;9296;48.084;16.352;2023-12-07T19:49:33;29.13;;;15.07;;
18340;SDS011;9296;48.084;16.352;2023-12-07T19:52:17;30.33;;;15.83;;
18340;SDS011;9296;48.084;16.352;2023-12-07T19:55:01;28.03;;;15.87;;
18340;SDS011;9296;48.084;16.352;2023-12-07T20:00:11;24.83;;;15.10;;
18340;SDS011;9296;48.084;16.352;2023-12-07T20:09:10;31.10;;;15.57;;
18340;SDS011;9296;48.084;16.352;2023-12-07T20:14:27;35.70;;;17.87;;
18340;SDS011;9296;48.084;16.352;2023-12-07T20:16:55;33.33;;;19.47;;
18340;SDS011;9296;48.084;16.352;2023-12-07T20:22:34;31.33;;;17.43;;
18340;SDS011;9296;48.084;16.352;2023-12-07T20:27:59;31.50;;;17.47;;
18340;SDS011;9296;48.084;16.352;2023-12-07T20:30:29;31.50;;;16.63;;
18340;SDS011;9296;48.084;16.352;2023-12-07T20:36:15;38.43;;;20.77;;
18340;SDS011;9296;48.084;16.352;2023-12-07T20:41:32;34.87;;;17.93;;
18340;SDS011;9296;48.084;16.352;2023-12-07T21:07:11;33.93;;;18.97;;
18340;SDS011;9296;48.084;16.352;2023-12-07T21:09:39;35.90;;;19.70;;
18340;SDS011;9296;48.084;16.352;2023-12-07T21:12:08;32.83;;;18.10;;
18340;SDS011;9296;48.084;16.352;2023-12-07T21:14:35;34.07;;;18.27;;
18340;SDS011;9296;48.084;16.352;2023-12-07T21:17:17;36.10;;;18.37;;
18340;SDS011;9296;48.084;16.352;2023-12-07T21:25:10;36.40;;;19.30;;
18340;SDS011;9296;48.084;16.352;2023-12-07T21:27:52;35.20;;;18.27;;
18340;SDS011;9296;48.084;16.352;2023-12-07T21:30:26;34.37;;;19.27;;
18340;SDS011;9296;48.084;16.352;2023-12-07T21:33:31;45.70;;;23.53;;
18340;SDS011;9296;48.084;16.352;2023-12-07T21:36:01;46.77;;;22.77;;
18340;SDS011;9296;48.084;16.352;2023-12-07T21:38:31;37.77;;;20.23;;
18340;SDS011;9296;48.084;16.352;2023-12-07T21:43:57;38.30;;;21.50;;
18340;SDS011;9296;48.084;16.352;2023-12-07T21:46:38;36.67;;;19.53;;
18340;SDS011;9296;48.084;16.352;2023-12-07T21:49:08;38.03;;;19.73;;
18340;SDS011;9296;48.084;16.352;2023-12-07T21:51:36;44.60;;;22.73;;
18340;SDS011;9296;48.084;16.352;2023-12-07T21:54:07;40.87;;;21.57;;
18340;SDS011;9296;48.084;16.352;2023-12-07T21:56:35;38.47;;;19.47;;
18340;SDS011;9296;48.084;16.352;2023-12-07T21:59:05;34.97;;;18.90;;
18340;SDS011;9296;48.084;16.352;2023-12-07T22:01:32;34.07;;;18.97;;
18340;SDS011;9296;48.084;16.352;2023-12-07T22:07:07;34.13;;;18.37;;
18340;SDS011;9296;48.084;16.352;2023-12-07T22:09:36;34.73;;;17.50;;
18340;SDS011;9296;48.084;16.352;2023-12-07T22:12:09;32.53;;;18.27;;
18340;SDS011;9296;48.084;16.352;2023-12-07T22:14:41;31.20;;;16.90;;
18340;SDS011;9296;48.084;16.352;2023-12-07T22:17:09;37.03;;;17.27;;
18340;SDS011;9296;48.084;16.352;2023-12-07T22:22:41;34.43;;;17.83;;
18340;SDS011;9296;48.084;16.352;2023-12-07T22:25:10;37.90;;;18.80;;
18340;SDS011;9296;48.084;16.352;2023-12-07T22:27:44;31.53;;;16.80;;
18340;SDS011;9296;48.084;16.352;2023-12-07T22:38:52;33.47;;;18.80;;
18340;SDS011;9296;48.084;16.352;2023-12-07T22:41:33;32.77;;;17.93;;
18340;SDS011;9296;48.084;16.352;2023-12-07T22:44:11;33.10;;;17.40;;
18340;SDS011;9296;48.084;16.352;2023-12-07T22:46:52;30.07;;;17.40;;
18340;SDS011;9296;48.084;16.352;2023-12-07T22:52:33;29.20;;;16.63;;
18340;SDS011;9296;48.084;16.352;2023-12-07T22:55:13;29.57;;;16.80;;
18340;SDS011;9296;48.084;16.352;2023-12-07T23:00:22;31.33;;;16.63;;
18340;SDS011;9296;48.084;16.352;2023-12-07T23:02:53;35.07;;;17.07;;
18340;SDS011;9296;48.084;16.352;2023-12-07T23:08:39;32.87;;;18.23;;
18340;SDS011;9296;48.084;16.352;2023-12-07T23:11:08;32.43;;;18.30;;
18340;SDS011;9296;48.084;16.352;2023-12-07T23:13:38;33.83;;;18.20;;
18340;SDS011;9296;48.084;16.352;2023-12-07T23:16:08;37.20;;;18.47;;
18340;SDS011;9296;48.084;16.352;2023-12-07T23:18:35;34.30;;;17.70;;
18340;SDS011;9296;48.084;16.352;2023-12-07T23:24:24;31.53;;;17.37;;
18340;SDS011;9296;48.084;16.352;2023-12-07T23:26:53;37.00;;;19.00;;
18340;SDS011;9296;48.084;16.352;2023-12-07T23:29:21;37.17;;;19.43;;
18340;SDS011;9296;48.084;16.352;2023-12-07T23:31:49;37.17;;;19.60;;
18340;SDS011;9296;48.084;16.352;2023-12-07T23:34:16;34.27;;;18.10;;
18340;SDS011;9296;48.084;16.352;2023-12-07T23:36:43;34.23;;;17.60;;
18340;SDS011;9296;48.084;16.352;2023-12-07T23:39:15;34.07;;;17.77;;
18340;SDS011;9296;48.084;16.352;2023-12-07T23:41:45;33.80;;;18.30;;
18340;SDS011;9296;48.084;16.352;2023-12-07T23:44:14;35.27;;;17.33;;
18340;SDS011;9296;48.084;16.352;2023-12-07T23:46:41;33.27;;;17.57;;
18340;SDS011;9296;48.084;16.352;2023-12-07T23:52:22;31.20;;;16.77;;
18340;SDS011;9296;48.084;16.352;2023-12-07T23:54:50;34.63;;;17.60;;
18340;SDS011;9296;48.084;16.352;2023-12-07T23:57:31;34.17;;;18.00;;
